Time;durP1;ratioP1;P1;durP2;ratioP2;P2;SDS_P1;SDS_P2;PMS_P1;PMS_P2;Temp;Humidity;BMP_temperature;BMP_pressure;BME280_temperature;BME280_humidity;BME280_pressure;Samples;Min_cycle;Max_cycle;Signal;HPM_P1;HPM_P2
2022/11/30 00:01:16;;;;;;;0.00;0.00;;;7.40;99.90;;;;;;5053053;28;20173;-67
2022/11/30 00:03:42;;;;;;;0.05;0.05;;;7.30;99.90;;;;;;5052728;28;20625;-67
2022/11/30 00:06:11;;;;;;;0.08;0.08;;;7.30;99.90;;;;;;5052744;28;20783;-67
2022/11/30 00:08:37;;;;;;;0.10;0.10;;;7.30;99.90;;;;;;5052661;28;20183;-67
2022/11/30 00:11:14;;;;;;;0.00;0.00;;;7.30;99.90;;;;;;5052574;28;20260;-68
2022/11/30 00:13:40;;;;;;;0.00;0.00;;;7.30;99.90;;;;;;5052186;28;20235;-67
2022/11/30 00:16:07;;;;;;;0.13;0.13;;;7.30;99.90;;;;;;5052623;28;20260;-67
2022/11/30 00:18:33;;;;;;;0.20;0.20;;;7.30;99.90;;;;;;5052396;28;20248;-67
2022/11/30 00:21:04;;;;;;;0.03;0.03;;;7.30;99.90;;;;;;5052395;28;20185;-67
2022/11/30 00:23:34;;;;;;;0.15;0.15;;;7.30;99.90;;;;;;5052363;28;20550;-73
2022/11/30 00:26:04;;;;;;;0.00;0.00;;;7.30;99.90;;;;;;5051013;28;20192;-70
2022/11/30 00:28:32;;;;;;;0.45;0.30;;;7.30;99.90;;;;;;5051798;28;21032;-65
2022/11/30 00:31:03;;;;;;;0.20;0.20;;;7.30;99.90;;;;;;5052063;28;20185;-65
2022/11/30 00:33:31;;;;;;;0.00;0.00;;;7.30;99.90;;;;;;5047311;28;20220;-65
2022/11/30 00:36:02;;;;;;;0.00;0.00;;;7.30;99.90;;;;;;5044392;28;20169;-65
2022/11/30 00:38:28;;;;;;;0.08;0.08;;;7.30;99.90;;;;;;5052068;28;20632;-65
2022/11/30 00:40:53;;;;;;;0.00;0.00;;;7.30;99.90;;;;;;5052166;28;20177;-65
2022/11/30 00:43:19;;;;;;;0.32;0.32;;;7.20;99.90;;;;;;5051969;28;20531;-65
2022/11/30 00:45:45;;;;;;;0.00;0.00;;;7.20;99.90;;;;;;5052098;28;20181;-65
2022/11/30 00:48:11;;;;;;;0.00;0.00;;;7.30;99.90;;;;;;5052056;28;20718;-65
2022/11/30 00:50:36;;;;;;;1.08;1.08;;;7.20;99.90;;;;;;5052046;28;20236;-65
2022/11/30 00:53:02;;;;;;;0.35;0.35;;;7.20;99.90;;;;;;5038876;28;20239;-65
2022/11/30 00:55:27;;;;;;;0.55;0.38;;;7.20;99.90;;;;;;5052013;28;20186;-65
2022/11/30 00:57:53;;;;;;;0.75;0.43;;;7.20;99.90;;;;;;5051835;28;20170;-65
2022/11/30 01:00:19;;;;;;;0.65;0.65;;;7.20;99.90;;;;;;5051919;28;20238;-65
2022/11/30 01:02:44;;;;;;;0.00;0.00;;;7.20;99.90;;;;;;5051958;28;20196;-65
2022/11/30 01:05:10;;;;;;;0.00;0.00;;;7.20;99.90;;;;;;5051819;28;20177;-65
2022/11/30 01:07:36;;;;;;;0.00;0.00;;;7.20;99.90;;;;;;5051545;28;20196;-65
2022/11/30 01:10:02;;;;;;;0.20;0.10;;;7.20;99.90;;;;;;5051730;28;20173;-65
2022/11/30 01:12:28;;;;;;;0.65;0.65;;;7.20;99.90;;;;;;5051639;28;20181;-67
2022/11/30 01:14:53;;;;;;;0.00;0.00;;;7.20;99.90;;;;;;5051569;28;20233;-65
2022/11/30 01:17:19;;;;;;;0.00;0.00;;;7.20;99.90;;;;;;5051920;28;20203;-64
2022/11/30 01:19:44;;;;;;;0.10;0.10;;;7.30;99.90;;;;;;5051700;28;20184;-65
2022/11/30 01:22:10;;;;;;;0.00;0.00;;;7.20;99.90;;;;;;5051704;28;20704;-64
2022/11/30 01:24:35;;;;;;;0.30;0.30;;;7.20;99.90;;;;;;5051685;28;20260;-64
2022/11/30 01:27:01;;;;;;;0.15;0.15;;;7.20;99.90;;;;;;5051608;28;20208;-65
2022/11/30 01:29:26;;;;;;;0.08;0.08;;;7.20;99.90;;;;;;5051478;28;20272;-64
2022/11/30 01:31:52;;;;;;;0.00;0.00;;;7.20;99.90;;;;;;5051377;28;20213;-65
2022/11/30 01:34:17;;;;;;;0.03;0.03;;;7.20;99.90;;;;;;5051552;28;20209;-65
2022/11/30 01:36:43;;;;;;;0.32;0.32;;;7.20;99.90;;;;;;5051350;28;20215;-65
2022/11/30 01:39:09;;;;;;;0.32;0.32;;;7.20;99.90;;;;;;5051526;28;20180;-65
2022/11/30 01:41:35;;;;;;;0.00;0.00;;;7.20;99.90;;;;;;5051587;28;20660;-65
2022/11/30 01:44:03;;;;;;;0.17;0.17;;;7.20;99.90;;;;;;5051198;28;20219;-65
2022/11/30 01:46:48;;;;;;;0.10;0.10;;;7.20;99.90;;;;;;5050192;28;20243;-65
2022/11/30 01:49:19;;;;;;;0.65;0.65;;;7.20;99.90;;;;;;5050360;28;20631;-65
2022/11/30 01:51:52;;;;;;;0.10;0.10;;;7.20;99.90;;;;;;5051353;28;20184;-65
2022/11/30 01:54:23;;;;;;;0.10;0.10;;;7.10;99.90;;;;;;5051357;28;20221;-64
2022/11/30 01:56:54;;;;;;;0.00;0.00;;;7.20;99.90;;;;;;5053286;28;20199;-65
2022/11/30 01:59:22;;;;;;;0.10;0.10;;;7.10;99.90;;;;;;5053882;28;20632;-65
2022/11/30 02:01:48;;;;;;;0.20;0.20;;;7.10;99.90;;;;;;5055096;28;20738;-65
2022/11/30 02:04:30;;;;;;;0.40;0.40;;;7.10;99.90;;;;;;5054974;28;20181;-65
2022/11/30 02:06:58;;;;;;;0.00;0.00;;;7.10;99.90;;;;;;5054923;28;20170;-65
2022/11/30 02:09:26;;;;;;;0.10;0.10;;;7.10;99.90;;;;;;5054988;28;20584;-65
2022/11/30 02:11:52;;;;;;;0.10;0.10;;;7.10;99.90;;;;;;5054810;28;20235;-65
2022/11/30 02:14:40;;;;;;;0.38;0.25;;;7.10;99.90;;;;;;5053426;28;20233;-65
2022/11/30 02:17:10;;;;;;;0.05;0.05;;;7.10;99.90;;;;;;5054383;28;20189;-65
2022/11/30 02:20:09;;;;;;;0.03;0.03;;;7.10;99.90;;;;;;5044532;28;20181;-65
2022/11/30 02:22:53;;;;;;;0.00;0.00;;;7.10;99.90;;;;;;5033630;28;20240;-65
2022/11/30 02:25:56;;;;;;;0.15;0.15;;;7.10;99.90;;;;;;5050573;28;20239;-65
2022/11/30 02:28:48;;;;;;;0.47;0.47;;;7.10;99.90;;;;;;5036759;28;20185;-65
2022/11/30 02:31:20;;;;;;;0.60;0.38;;;7.10;99.90;;;;;;5054338;28;20182;-65
2022/11/30 02:33:47;;;;;;;0.35;0.35;;;7.10;99.90;;;;;;5053656;28;20201;-65
2022/11/30 02:36:13;;;;;;;0.00;0.00;;;7.00;99.90;;;;;;5054455;28;20243;-65
2022/11/30 02:38:40;;;;;;;0.30;0.30;;;7.10;99.90;;;;;;5045371;28;20185;-65
2022/11/30 02:41:05;;;;;;;0.20;0.10;;;7.00;99.90;;;;;;5038294;28;20186;-65
2022/11/30 02:43:32;;;;;;;0.40;0.40;;;7.00;99.90;;;;;;5054290;28;20184;-65
2022/11/30 02:46:07;;;;;;;0.73;0.73;;;7.00;99.90;;;;;;5053980;28;20574;-65
2022/11/30 02:49:04;;;;;;;0.00;0.00;;;7.00;99.90;;;;;;5053645;28;20218;-65
2022/11/30 02:51:31;;;;;;;0.00;0.00;;;7.00;99.90;;;;;;5052466;28;20192;-65
2022/11/30 02:53:57;;;;;;;0.75;0.75;;;7.00;99.90;;;;;;5048924;28;20214;-65
2022/11/30 02:56:23;;;;;;;0.28;0.28;;;7.00;99.90;;;;;;5047668;28;20663;-65
2022/11/30 02:58:48;;;;;;;0.10;0.10;;;7.00;99.90;;;;;;5054159;28;20514;-65
2022/11/30 03:01:14;;;;;;;0.43;0.20;;;7.00;99.90;;;;;;5053738;28;20188;-65
2022/11/30 03:03:40;;;;;;;0.00;0.00;;;7.00;99.90;;;;;;5053003;28;20280;-65
2022/11/30 03:06:05;;;;;;;0.08;0.08;;;7.00;99.90;;;;;;5053461;28;20509;-66
2022/11/30 03:08:31;;;;;;;0.35;0.35;;;7.00;99.90;;;;;;5053819;28;20224;-65
2022/11/30 03:11:01;;;;;;;0.38;0.38;;;7.00;99.90;;;;;;5053467;28;20178;-65
2022/11/30 03:13:27;;;;;;;0.30;0.30;;;7.00;99.90;;;;;;5033524;28;20226;-65
2022/11/30 03:15:52;;;;;;;0.20;0.20;;;7.00;99.90;;;;;;5033654;28;20267;-65
2022/11/30 03:18:18;;;;;;;0.10;0.10;;;7.00;99.90;;;;;;5050973;28;20173;-65
2022/11/30 03:20:43;;;;;;;0.55;0.20;;;7.00;99.90;;;;;;5053511;28;20177;-65
2022/11/30 03:23:09;;;;;;;0.35;0.35;;;7.00;99.90;;;;;;5053157;28;20280;-65
2022/11/30 03:25:34;;;;;;;0.00;0.00;;;7.00;99.90;;;;;;5053487;28;20173;-65
2022/11/30 03:28:01;;;;;;;0.10;0.10;;;7.00;99.90;;;;;;5053171;28;20663;-65
2022/11/30 03:30:27;;;;;;;0.45;0.38;;;7.00;99.90;;;;;;5053358;28;20261;-65
2022/11/30 03:32:52;;;;;;;0.00;0.00;;;7.00;99.90;;;;;;5052310;28;20331;-65
2022/11/30 03:35:18;;;;;;;0.38;0.38;;;7.00;99.90;;;;;;5053263;28;20633;-65
2022/11/30 03:37:44;;;;;;;0.10;0.10;;;6.90;99.90;;;;;;5052926;28;20272;-65
2022/11/30 03:40:10;;;;;;;0.00;0.00;;;6.90;99.90;;;;;;5053077;28;20528;-65
2022/11/30 03:42:36;;;;;;;0.00;0.00;;;6.90;99.90;;;;;;5053023;28;20260;-65
2022/11/30 03:45:02;;;;;;;0.10;0.10;;;6.90;99.90;;;;;;5049290;28;20338;-65
2022/11/30 03:47:27;;;;;;;0.10;0.10;;;6.90;99.90;;;;;;5036424;28;20174;-65
2022/11/30 03:49:53;;;;;;;0.00;0.00;;;6.90;99.90;;;;;;5051283;28;20644;-65
2022/11/30 03:52:18;;;;;;;0.22;0.15;;;6.80;99.90;;;;;;5052793;28;20698;-65
2022/11/30 03:54:44;;;;;;;0.00;0.00;;;6.80;99.90;;;;;;5052708;28;20209;-65
2022/11/30 03:57:09;;;;;;;0.00;0.00;;;6.80;99.90;;;;;;5052754;28;20178;-65
2022/11/30 03:59:35;;;;;;;0.08;0.08;;;6.80;99.90;;;;;;5052415;28;20181;-65
2022/11/30 04:02:00;;;;;;;0.13;0.13;;;6.80;99.90;;;;;;5052515;28;20193;-66
2022/11/30 04:04:26;;;;;;;0.00;0.00;;;6.80;99.90;;;;;;5051156;28;20231;-65
2022/11/30 04:06:51;;;;;;;0.00;0.00;;;6.80;99.90;;;;;;5052555;28;20174;-65
2022/11/30 04:09:17;;;;;;;0.10;0.10;;;6.70;99.90;;;;;;5052803;28;20243;-65
2022/11/30 04:11:42;;;;;;;0.20;0.20;;;6.70;99.90;;;;;;5052642;28;20260;-66
2022/11/30 04:14:08;;;;;;;0.30;0.30;;;6.70;99.90;;;;;;5052323;28;20229;-65
2022/11/30 04:16:34;;;;;;;0.13;0.13;;;6.70;99.90;;;;;;5052472;28;20174;-64
2022/11/30 04:18:59;;;;;;;0.10;0.10;;;6.70;99.90;;;;;;5051976;28;20184;-65
2022/11/30 04:21:25;;;;;;;0.03;0.03;;;6.70;99.90;;;;;;5051515;28;20196;-66
2022/11/30 04:23:51;;;;;;;0.03;0.03;;;6.60;99.90;;;;;;5051149;28;20234;-64
2022/11/30 04:26:16;;;;;;;0.38;0.38;;;6.60;99.90;;;;;;5051660;28;20536;-62
2022/11/30 04:28:42;;;;;;;0.00;0.00;;;6.60;99.90;;;;;;5051901;28;20185;-64
2022/11/30 04:31:08;;;;;;;0.00;0.00;;;6.60;99.90;;;;;;5051738;28;20350;-62
2022/11/30 04:33:34;;;;;;;0.00;0.00;;;6.50;99.90;;;;;;5051756;28;20747;-67
2022/11/30 04:36:03;;;;;;;0.00;0.00;;;6.50;99.90;;;;;;5051706;28;20293;-63
2022/11/30 04:38:29;;;;;;;0.20;0.20;;;6.50;99.90;;;;;;5050959;28;20262;-64
2022/11/30 04:40:55;;;;;;;0.15;0.15;;;6.50;99.90;;;;;;5051865;28;20659;-66
2022/11/30 04:43:20;;;;;;;0.10;0.10;;;6.50;99.90;;;;;;5051331;28;20227;-65
2022/11/30 04:45:47;;;;;;;0.10;0.10;;;6.50;99.90;;;;;;5051755;28;20652;-64
2022/11/30 04:48:13;;;;;;;0.08;0.08;;;6.50;99.90;;;;;;5051829;28;20184;-67
2022/11/30 04:50:38;;;;;;;0.08;0.08;;;6.50;99.90;;;;;;5052016;28;20184;-66
2022/11/30 04:53:05;;;;;;;0.10;0.10;;;6.50;99.90;;;;;;5051870;28;20178;-66
2022/11/30 04:55:30;;;;;;;0.20;0.10;;;6.50;99.90;;;;;;5051765;28;20246;-67
2022/11/30 04:57:56;;;;;;;0.45;0.17;;;6.40;99.90;;;;;;5051716;28;20531;-66
2022/11/30 05:00:22;;;;;;;0.30;0.17;;;6.40;99.90;;;;;;5051155;28;20585;-66
2022/11/30 05:02:48;;;;;;;0.00;0.00;;;6.40;99.90;;;;;;5051071;28;20624;-65
2022/11/30 05:05:14;;;;;;;0.05;0.05;;;6.50;99.90;;;;;;5050498;28;20217;-66
2022/11/30 05:07:39;;;;;;;0.15;0.15;;;6.40;99.90;;;;;;5051454;28;20196;-66
2022/11/30 05:10:06;;;;;;;0.52;0.52;;;6.50;99.90;;;;;;5051746;28;20189;-66
2022/11/30 05:12:32;;;;;;;0.00;0.00;;;6.40;99.90;;;;;;5051811;28;20645;-66
2022/11/30 05:14:57;;;;;;;0.00;0.00;;;6.40;99.90;;;;;;5051585;28;20383;-66
2022/11/30 05:17:23;;;;;;;0.15;0.15;;;6.40;99.90;;;;;;5050546;28;20197;-66
2022/11/30 05:19:50;;;;;;;0.00;0.00;;;6.40;99.90;;;;;;5051776;28;20575;-66
2022/11/30 05:22:15;;;;;;;0.03;0.03;;;6.40;99.90;;;;;;5051821;28;20248;-66
2022/11/30 05:24:41;;;;;;;0.55;0.30;;;6.40;99.90;;;;;;5051714;28;20197;-66
2022/11/30 05:27:07;;;;;;;0.38;0.38;;;6.40;99.90;;;;;;5051769;28;20492;-66
2022/11/30 05:29:34;;;;;;;0.20;0.20;;;6.40;99.90;;;;;;5051790;28;20226;-66
2022/11/30 05:32:00;;;;;;;0.00;0.00;;;6.40;99.90;;;;;;5055355;28;20223;-66
2022/11/30 05:34:25;;;;;;;0.00;0.00;;;6.40;99.90;;;;;;5054219;28;20217;-66
2022/11/30 05:36:51;;;;;;;1.75;0.70;;;6.40;99.90;;;;;;5055578;28;20174;-66
2022/11/30 05:39:16;;;;;;;0.00;0.00;;;6.50;99.90;;;;;;5055547;28;20213;-66
2022/11/30 05:41:42;;;;;;;0.05;0.05;;;6.40;99.90;;;;;;5055553;28;20252;-66
2022/11/30 05:44:08;;;;;;;0.00;0.00;;;6.50;99.90;;;;;;5055491;28;20703;-66
2022/11/30 05:46:33;;;;;;;0.05;0.05;;;6.40;99.90;;;;;;5055308;28;20173;-66
2022/11/30 05:48:59;;;;;;;0.10;0.10;;;6.40;99.90;;;;;;5055336;28;20177;-66
2022/11/30 05:51:25;;;;;;;0.10;0.10;;;6.40;99.90;;;;;;5055401;28;20181;-66
2022/11/30 05:53:50;;;;;;;0.00;0.00;;;6.40;99.90;;;;;;5055152;28;20216;-66
2022/11/30 05:56:18;;;;;;;0.10;0.10;;;6.40;99.90;;;;;;5054052;28;20185;-66
2022/11/30 05:58:45;;;;;;;0.00;0.00;;;6.40;99.90;;;;;;5055061;28;20185;-66
2022/11/30 06:01:22;;;;;;;0.00;0.00;;;6.40;99.90;;;;;;5054880;28;20192;-66
2022/11/30 06:03:48;;;;;;;0.10;0.10;;;6.40;99.90;;;;;;5053595;28;20231;-66
2022/11/30 06:06:13;;;;;;;0.00;0.00;;;6.50;99.90;;;;;;5054963;28;20258;-66
2022/11/30 06:08:39;;;;;;;0.05;0.05;;;6.40;99.90;;;;;;5055033;28;20512;-66
2022/11/30 06:11:05;;;;;;;0.00;0.00;;;6.40;99.90;;;;;;5053739;28;20189;-66
2022/11/30 06:13:34;;;;;;;0.00;0.00;;;6.40;99.90;;;;;;5054646;28;20248;-66
2022/11/30 06:16:00;;;;;;;0.00;0.00;;;6.40;99.90;;;;;;5054896;28;20185;-66
2022/11/30 06:18:26;;;;;;;0.52;0.22;;;6.40;99.90;;;;;;5054982;28;20182;-66
2022/11/30 06:20:51;;;;;;;0.20;0.20;;;6.40;99.90;;;;;;5054779;28;20239;-66
2022/11/30 06:23:17;;;;;;;0.05;0.05;;;6.40;99.90;;;;;;5054703;28;20185;-66
2022/11/30 06:25:42;;;;;;;0.00;0.00;;;6.50;99.90;;;;;;5053462;28;20181;-66
2022/11/30 06:28:09;;;;;;;0.00;0.00;;;6.50;99.90;;;;;;5054132;28;20177;-66
2022/11/30 06:30:35;;;;;;;0.10;0.10;;;6.50;99.90;;;;;;5054544;28;20659;-66
2022/11/30 06:33:01;;;;;;;0.00;0.00;;;6.50;99.90;;;;;;5054397;28;20185;-66
2022/11/30 06:35:26;;;;;;;0.20;0.20;;;6.50;99.90;;;;;;5054477;28;20184;-66
2022/11/30 06:37:53;;;;;;;0.00;0.00;;;6.50;99.90;;;;;;5054289;28;20174;-66
2022/11/30 06:40:19;;;;;;;0.30;0.30;;;6.50;99.90;;;;;;5054444;28;20180;-66
2022/11/30 06:42:44;;;;;;;0.00;0.00;;;6.50;99.90;;;;;;5053876;28;20178;-66
2022/11/30 06:45:10;;;;;;;0.00;0.00;;;6.50;99.90;;;;;;5052954;28;20209;-66
2022/11/30 06:47:35;;;;;;;0.00;0.00;;;6.50;99.90;;;;;;5054311;28;20173;-66
2022/11/30 06:50:01;;;;;;;0.15;0.15;;;6.50;99.90;;;;;;5054128;28;20216;-66
2022/11/30 06:52:30;;;;;;;0.00;0.00;;;6.50;99.90;;;;;;5054228;28;20178;-66
2022/11/30 06:54:55;;;;;;;0.55;0.55;;;6.50;99.90;;;;;;5054127;28;20572;-66
2022/11/30 06:57:26;;;;;;;0.00;0.00;;;6.50;99.90;;;;;;5054241;28;20173;-66
2022/11/30 06:59:51;;;;;;;0.00;0.00;;;6.50;99.90;;;;;;5054077;28;20181;-66
2022/11/30 07:02:17;;;;;;;0.10;0.10;;;6.50;99.90;;;;;;5054065;28;20699;-66
2022/11/30 07:04:42;;;;;;;0.00;0.00;;;6.50;99.90;;;;;;5052728;28;20181;-66
2022/11/30 07:07:08;;;;;;;0.00;0.00;;;6.50;99.90;;;;;;5052647;28;20235;-66
2022/11/30 07:09:34;;;;;;;0.80;0.28;;;6.50;99.90;;;;;;5053950;28;20173;-65
2022/11/30 07:12:00;;;;;;;0.13;0.13;;;6.50;99.90;;;;;;5053725;28;20173;-66
2022/11/30 07:14:25;;;;;;;0.00;0.00;;;6.50;99.90;;;;;;5053791;28;20636;-66
2022/11/30 07:16:51;;;;;;;0.00;0.00;;;6.50;99.90;;;;;;5053675;28;20184;-66
2022/11/30 07:19:17;;;;;;;0.55;0.30;;;6.50;99.90;;;;;;5053795;28;20235;-66
2022/11/30 07:21:43;;;;;;;0.05;0.05;;;6.50;99.90;;;;;;5053748;28;20602;-66
2022/11/30 07:26:58;;;;;;;0.30;0.28;;;6.40;99.90;;;;;;5053850;28;20231;-66
2022/11/30 07:29:24;;;;;;;0.10;0.10;;;6.50;99.90;;;;;;5053677;28;20280;-66
2022/11/30 07:31:51;;;;;;;0.55;0.15;;;6.50;99.90;;;;;;5053366;28;20672;-65
2022/11/30 07:34:17;;;;;;;0.10;0.10;;;6.50;99.90;;;;;;5053410;28;20738;-66
2022/11/30 07:36:43;;;;;;;0.00;0.00;;;6.50;99.90;;;;;;5053468;28;20265;-66
2022/11/30 07:39:09;;;;;;;0.10;0.10;;;6.50;99.90;;;;;;5053175;28;20185;-66
2022/11/30 07:41:34;;;;;;;0.00;0.00;;;6.60;99.90;;;;;;5053366;28;20177;-66
2022/11/30 07:44:02;;;;;;;0.52;0.52;;;6.60;99.90;;;;;;5053177;28;20181;-66
2022/11/30 07:46:27;;;;;;;0.47;0.32;;;6.60;99.90;;;;;;5053173;28;20532;-65
2022/11/30 07:48:53;;;;;;;0.20;0.20;;;6.60;99.90;;;;;;5053421;28;20272;-65
2022/11/30 07:51:21;;;;;;;0.00;0.00;;;6.60;99.90;;;;;;5053140;28;20272;-65
2022/11/30 07:53:47;;;;;;;0.00;0.00;;;6.60;99.90;;;;;;5052096;28;20210;-66
2022/11/30 07:56:15;;;;;;;0.00;0.00;;;6.60;99.90;;;;;;5053146;28;20192;-66
2022/11/30 07:58:41;;;;;;;0.10;0.10;;;6.70;99.90;;;;;;5052970;28;20230;-65
2022/11/30 08:01:20;;;;;;;0.55;0.55;;;6.70;99.90;;;;;;5053118;28;20279;-66
2022/11/30 08:03:46;;;;;;;3.30;0.70;;;6.70;99.90;;;;;;5052809;28;20272;-66
2022/11/30 08:06:14;;;;;;;0.00;0.00;;;6.70;99.90;;;;;;5053007;28;20268;-66
2022/11/30 08:08:42;;;;;;;0.32;0.17;;;6.70;99.90;;;;;;5053092;28;20177;-66
2022/11/30 08:11:11;;;;;;;0.15;0.15;;;6.70;99.90;;;;;;5052659;28;20223;-66
2022/11/30 08:13:36;;;;;;;0.00;0.00;;;6.70;99.90;;;;;;5052601;28;20217;-66
2022/11/30 08:16:04;;;;;;;0.00;0.00;;;6.70;99.90;;;;;;5052713;28;20178;-66
2022/11/30 08:18:30;;;;;;;0.00;0.00;;;6.70;99.90;;;;;;5052462;28;20173;-66
2022/11/30 08:21:00;;;;;;;0.10;0.10;;;6.80;99.90;;;;;;5052600;28;20587;-66
2022/11/30 08:23:30;;;;;;;0.00;0.00;;;6.80;99.90;;;;;;5052571;28;20184;-65
2022/11/30 08:26:00;;;;;;;0.20;0.20;;;6.80;99.90;;;;;;5052584;28;20176;-66
2022/11/30 08:28:27;;;;;;;0.65;0.25;;;6.90;99.90;;;;;;5052534;28;20177;-66
2022/11/30 08:30:53;;;;;;;0.15;0.15;;;6.90;99.90;;;;;;5052444;28;20570;-65
2022/11/30 08:33:18;;;;;;;0.20;0.10;;;6.90;99.90;;;;;;5051027;28;20192;-66
2022/11/30 08:35:44;;;;;;;1.55;0.28;;;6.90;99.90;;;;;;5052260;28;20174;-65
2022/11/30 08:38:09;;;;;;;0.00;0.00;;;7.00;99.90;;;;;;5052149;28;20209;-65
2022/11/30 08:40:35;;;;;;;0.10;0.10;;;6.90;99.90;;;;;;5052239;28;20199;-66
2022/11/30 08:43:00;;;;;;;0.00;0.00;;;7.00;99.90;;;;;;5052166;28;20181;-66
2022/11/30 08:45:26;;;;;;;0.10;0.10;;;7.00;99.90;;;;;;5052106;28;20176;-66
2022/11/30 08:47:53;;;;;;;0.17;0.17;;;7.00;99.90;;;;;;5050951;28;20177;-66
2022/11/30 08:50:19;;;;;;;0.30;0.30;;;7.00;99.90;;;;;;5052247;28;20264;-66
2022/11/30 08:52:44;;;;;;;0.10;0.10;;;7.00;99.90;;;;;;5052088;28;20586;-66
2022/11/30 08:55:10;;;;;;;1.38;0.30;;;7.10;99.90;;;;;;5052165;28;20677;-66
2022/11/30 08:57:35;;;;;;;0.17;0.17;;;7.10;99.90;;;;;;5052099;28;20173;-66
2022/11/30 09:00:01;;;;;;;1.13;1.02;;;7.20;99.90;;;;;;5052049;28;20181;-66
2022/11/30 09:02:27;;;;;;;0.47;0.25;;;7.20;99.90;;;;;;5051907;28;20184;-65
2022/11/30 09:04:52;;;;;;;0.00;0.00;;;7.20;99.90;;;;;;5051727;28;20180;-65
2022/11/30 09:07:18;;;;;;;0.00;0.00;;;7.30;99.90;;;;;;5051860;28;20173;-65
2022/11/30 09:09:44;;;;;;;0.45;0.45;;;7.30;99.90;;;;;;5051803;28;20177;-65
2022/11/30 09:12:10;;;;;;;0.00;0.00;;;7.30;99.90;;;;;;5051764;28;20182;-65
2022/11/30 09:14:35;;;;;;;0.75;0.75;;;7.30;99.90;;;;;;5051689;28;20326;-66
2022/11/30 09:17:01;;;;;;;0.00;0.00;;;7.40;99.90;;;;;;5051803;28;20178;-66
2022/11/30 09:19:27;;;;;;;0.20;0.20;;;7.40;99.90;;;;;;5050748;28;20253;-66
2022/11/30 09:21:52;;;;;;;0.00;0.00;;;7.40;99.90;;;;;;5051837;28;20181;-66
2022/11/30 09:24:19;;;;;;;0.03;0.03;;;7.40;99.90;;;;;;5051902;28;20248;-66
2022/11/30 09:26:45;;;;;;;0.03;0.03;;;7.40;99.90;;;;;;5051754;28;20181;-66
2022/11/30 09:29:10;;;;;;;0.10;0.10;;;7.40;99.90;;;;;;5051852;28;20181;-66
2022/11/30 09:31:36;;;;;;;0.28;0.28;;;7.50;99.90;;;;;;5051800;28;20172;-66
2022/11/30 09:34:01;;;;;;;0.00;0.00;;;7.60;99.90;;;;;;5051738;28;20280;-66
2022/11/30 09:36:27;;;;;;;1.25;0.55;;;7.60;99.90;;;;;;5051686;28;20281;-66
2022/11/30 09:38:54;;;;;;;0.03;0.03;;;7.60;99.90;;;;;;5051623;28;20205;-66
2022/11/30 09:41:25;;;;;;;0.60;0.45;;;7.70;99.90;;;;;;5051166;28;20239;-66
2022/11/30 09:44:04;;;;;;;0.08;0.08;;;7.70;99.90;;;;;;5051420;28;20192;-66
2022/11/30 09:46:36;;;;;;;0.00;0.00;;;7.70;99.90;;;;;;5051076;28;20629;-65
2022/11/30 09:49:11;;;;;;;0.00;0.00;;;7.80;99.90;;;;;;5051625;28;20209;-66
2022/11/30 09:51:45;;;;;;;0.40;0.40;;;7.90;99.90;;;;;;5051531;28;20177;-65
2022/11/30 09:54:15;;;;;;;0.05;0.05;;;7.90;99.90;;;;;;5051782;28;20729;-65
2022/11/30 09:56:42;;;;;;;0.00;0.00;;;7.90;99.90;;;;;;5055108;28;20724;-65
2022/11/30 09:59:28;;;;;;;0.20;0.20;;;7.90;99.90;;;;;;5058282;28;20226;-66
2022/11/30 10:01:55;;;;;;;0.00;0.00;;;7.90;99.90;;;;;;5053762;28;20172;-65
2022/11/30 10:04:26;;;;;;;0.10;0.10;;;7.90;99.90;;;;;;5055308;28;20235;-66
2022/11/30 10:07:07;;;;;;;0.15;0.15;;;7.90;99.90;;;;;;5051374;28;20205;-66
2022/11/30 10:10:08;;;;;;;0.10;0.10;;;7.90;99.90;;;;;;5050136;28;20178;-65
2022/11/30 10:12:43;;;;;;;0.10;0.10;;;8.00;99.90;;;;;;5035513;28;20184;-66
2022/11/30 10:15:25;;;;;;;0.00;0.00;;;8.10;99.90;;;;;;5062738;28;20235;-66
2022/11/30 10:17:56;;;;;;;0.22;0.22;;;8.10;99.90;;;;;;5074365;28;20181;-66
2022/11/30 10:20:52;;;;;;;0.00;0.00;;;8.00;99.90;;;;;;5074837;28;20176;-65
2022/11/30 10:23:24;;;;;;;0.10;0.10;;;8.00;99.90;;;;;;5074921;28;20179;-66
2022/11/30 10:26:00;;;;;;;0.00;0.00;;;8.00;99.90;;;;;;5074918;28;20574;-65
2022/11/30 10:28:50;;;;;;;0.20;0.20;;;8.00;99.90;;;;;;5073504;28;20185;-65
2022/11/30 10:31:18;;;;;;;0.00;0.00;;;8.00;99.90;;;;;;5074768;28;20169;-66
2022/11/30 10:33:53;;;;;;;0.00;0.00;;;8.00;99.90;;;;;;5074438;28;20224;-65
2022/11/30 10:36:32;;;;;;;0.13;0.13;;;8.00;99.90;;;;;;5074613;28;20651;-66
2022/11/30 10:39:00;;;;;;;0.10;0.10;;;8.10;99.90;;;;;;5064139;28;20185;-66
2022/11/30 10:41:45;;;;;;;0.00;0.00;;;8.20;99.90;;;;;;5054547;28;20169;-66
2022/11/30 10:44:27;;;;;;;0.00;0.00;;;8.30;99.90;;;;;;5054555;28;20181;-66
2022/11/30 10:47:13;;;;;;;0.00;0.00;;;8.30;99.90;;;;;;5052904;28;20188;-66
2022/11/30 10:49:44;;;;;;;0.00;0.00;;;8.40;99.90;;;;;;5054093;28;20189;-66
2022/11/30 10:52:13;;;;;;;0.00;0.00;;;8.40;99.90;;;;;;5054000;28;20182;-64
2022/11/30 10:54:38;;;;;;;0.17;0.17;;;8.50;99.90;;;;;;5053634;28;20263;-65
2022/11/30 10:57:06;;;;;;;0.00;0.00;;;8.60;99.90;;;;;;5053727;28;20182;-66
2022/11/30 10:59:49;;;;;;;0.10;0.10;;;8.60;99.90;;;;;;5054024;28;20192;-65
2022/11/30 11:02:41;;;;;;;0.10;0.10;;;8.70;99.90;;;;;;5053702;28;20223;-65
2022/11/30 11:05:20;;;;;;;0.00;0.00;;;8.70;99.90;;;;;;5038593;28;20192;-65
2022/11/30 11:07:48;;;;;;;0.77;0.20;;;8.70;99.90;;;;;;5053643;28;20188;-66
2022/11/30 11:10:18;;;;;;;0.00;0.00;;;8.80;99.90;;;;;;5053564;28;20182;-65
2022/11/30 11:12:49;;;;;;;0.20;0.20;;;8.70;99.90;;;;;;5053729;28;20180;-66
2022/11/30 11:15:17;;;;;;;0.52;0.40;;;8.70;99.90;;;;;;5052408;28;20224;-66
2022/11/30 11:17:43;;;;;;;0.00;0.00;;;8.70;99.90;;;;;;5053462;28;20177;-66
2022/11/30 11:20:28;;;;;;;0.10;0.10;;;8.70;99.90;;;;;;5052354;28;20182;-66
2022/11/30 11:22:54;;;;;;;0.00;0.00;;;8.80;99.90;;;;;;5053269;28;20170;-67
2022/11/30 11:25:22;;;;;;;0.20;0.20;;;8.80;99.90;;;;;;5052137;28;20188;-66
2022/11/30 11:27:53;;;;;;;0.20;0.20;;;8.70;99.90;;;;;;5052133;28;20177;-66
2022/11/30 11:30:25;;;;;;;0.00;0.00;;;8.70;99.90;;;;;;5052045;28;20268;-65
2022/11/30 11:33:02;;;;;;;0.20;0.20;;;8.70;99.90;;;;;;5052833;28;20181;-62
2022/11/30 11:35:37;;;;;;;0.10;0.10;;;8.70;99.90;;;;;;5053160;28;20224;-63
2022/11/30 11:38:35;;;;;;;0.00;0.00;;;8.60;99.90;;;;;;5052896;28;20178;-65
2022/11/30 11:41:16;;;;;;;0.00;0.00;;;8.60;99.90;;;;;;5052654;28;20561;-65
2022/11/30 11:44:00;;;;;;;0.00;0.00;;;8.50;99.90;;;;;;5051425;28;20189;-65
2022/11/30 11:46:26;;;;;;;0.10;0.10;;;8.50;99.90;;;;;;5052752;28;20188;-65
2022/11/30 11:48:59;;;;;;;0.00;0.00;;;8.50;99.90;;;;;;5052541;28;20178;-65
2022/11/30 11:51:37;;;;;;;1.08;1.00;;;8.50;99.90;;;;;;5052777;28;20189;-65
2022/11/30 11:54:21;;;;;;;0.00;0.00;;;8.50;99.90;;;;;;5052590;28;20216;-65
2022/11/30 11:56:48;;;;;;;0.00;0.00;;;8.50;99.90;;;;;;5052958;28;20178;-65
2022/11/30 11:59:39;;;;;;;0.00;0.00;;;8.40;99.90;;;;;;5052620;28;20181;-65
2022/11/30 12:02:17;;;;;;;0.00;0.00;;;8.40;99.90;;;;;;5052577;28;20323;-65
2022/11/30 12:04:50;;;;;;;0.00;0.00;;;8.30;99.90;;;;;;5052576;28;20264;-65
2022/11/30 12:07:25;;;;;;;0.00;0.00;;;8.30;99.90;;;;;;5052791;28;20205;-65
2022/11/30 12:10:05;;;;;;;0.00;0.00;;;8.30;99.90;;;;;;5052453;28;20177;-66
2022/11/30 12:12:31;;;;;;;0.05;0.05;;;8.30;99.90;;;;;;5051596;28;20181;-66
2022/11/30 12:14:57;;;;;;;0.10;0.10;;;8.20;99.90;;;;;;5052322;28;20225;-66
2022/11/30 12:17:47;;;;;;;0.00;0.00;;;8.30;99.90;;;;;;5052477;28;20536;-65
2022/11/30 12:20:42;;;;;;;0.00;0.00;;;8.20;99.90;;;;;;5051167;28;20269;-66
2022/11/30 12:23:30;;;;;;;0.00;0.00;;;8.20;99.90;;;;;;5034826;28;20198;-65
2022/11/30 12:26:11;;;;;;;0.05;0.05;;;8.20;99.90;;;;;;5052250;28;20560;-65
2022/11/30 12:28:52;;;;;;;0.00;0.00;;;8.20;99.90;;;;;;5052197;28;20275;-65
2022/11/30 12:31:17;;;;;;;0.10;0.10;;;8.20;99.90;;;;;;5052193;28;20193;-65
2022/11/30 12:34:05;;;;;;;0.00;0.00;;;8.20;99.90;;;;;;5050647;28;20203;-65
2022/11/30 12:36:57;;;;;;;0.03;0.03;;;8.20;99.90;;;;;;5051496;28;20569;-65
2022/11/30 12:39:29;;;;;;;0.00;0.00;;;8.20;99.90;;;;;;5051778;28;20197;-65
2022/11/30 12:42:04;;;;;;;0.25;0.20;;;8.20;99.90;;;;;;5052118;28;20169;-65
2022/11/30 12:44:51;;;;;;;0.00;0.00;;;8.20;99.90;;;;;;5051939;28;20204;-65
2022/11/30 12:47:37;;;;;;;0.50;0.50;;;8.30;99.90;;;;;;5051016;28;20203;-65
2022/11/30 12:50:32;;;;;;;0.20;0.20;;;8.40;99.90;;;;;;5051912;28;20260;-65
2022/11/30 12:53:06;;;;;;;0.00;0.00;;;8.40;99.90;;;;;;5051804;28;20530;-65
2022/11/30 12:55:50;;;;;;;0.10;0.10;;;8.50;99.90;;;;;;5036064;28;20217;-65
2022/11/30 12:58:28;;;;;;;0.10;0.10;;;8.50;99.90;;;;;;5051802;28;20196;-65
2022/11/30 13:01:27;;;;;;;0.28;0.28;;;8.60;99.90;;;;;;5052102;28;20224;-65
2022/11/30 13:04:14;;;;;;;0.17;0.15;;;8.60;99.90;;;;;;5036727;28;20239;-65
2022/11/30 13:06:46;;;;;;;0.30;0.17;;;8.60;99.90;;;;;;5051933;28;20188;-65
2022/11/30 13:09:37;;;;;;;0.08;0.08;;;8.60;99.90;;;;;;5051829;28;20177;-65
2022/11/30 13:12:09;;;;;;;0.00;0.00;;;8.50;99.90;;;;;;5038241;28;20666;-65
2022/11/30 13:14:36;;;;;;;0.57;0.57;;;8.60;99.90;;;;;;5051499;28;20268;-65